Charlevoix, MI

9:53 AM EDT on April 26, 2015 (GMT -0400)
1.5 W Ironton | | Change Station
CLOSE
Current Station
Personal Weather Station
Location: Charlevoix, MI
Elevation: 750 ft
Nearby Weather Stations

Elev 750 ft 45.26 °N, 85.22 °W | Updated 13 seconds ago

Clear
Clear
40.5 °F
Feels Like 40 °F
N
0.0
Wind Variable Wind from NW
Gusts 0.0 mph

Today
High -- | Low -- °F
--% Chance of Precip.
Yesterday
High -- | Low -- °F
Precip. -- in
6:37 AM 8:40 PM
First Quarter, 55% visible
Pressure 30.05 in
Visibility 10.0 miles
Clouds Clear
Windchill 40 °F
Dew Point 34 °F
Humidity 77%
Rainfall 0.00 in
Snow Depth Not available.
UV 3 out of 12
Pollen 10.10 out of 12
Air Quality Not available.
Flu Activity Regional
METAR KCVX 261335Z AUTO 34004KT 10SM CLR 03/00 A3005 RMK AO2 T00330002

More Conditions Fewer Conditions

Pressure 30.05 in
Visibility 10.0 miles
Clouds Clear
Windchill 40 °F
Dew Point 34 °F
Humidity 77%
Rainfall 0.00 in
Snow Depth Not available.
UV 3 out of 12
Pollen 10.10 out of 12
Air Quality Not available.
Flu Activity Regional
METAR KCVX 261335Z AUTO 34004KT 10SM CLR 03/00 A3005 RMK AO2 T00330002

More Conditions Fewer Conditions

The full scope of the disaster following a powerful 7.8-magnitude earthquake in Nepal may not come into view for days, but global charities are already sending emergency aid. Click to see how you can help.
Nowcast | as of 9:00 am EDT on April 26, 2015

At 10 am...partly cloudy. Temperature 38. North winds 9 mph. At 12 PM...partly cloudy. Temperature 41. Northwest winds 12 mph. At 2 PM...mostly cloudy. Temperature 43. Northwest winds 12 mph. At 4 PM...mostly cloudy. Temperature 44. Northwest winds 14 mph with gusts to 25 mph.

×

10-Day Weather Forecast

Almanac

Astronomy

Apr. 26, 2015 Rise Set
Actual Time
Civil Twilight
Nautical Twilight
Astronomical Twilight
Moon
Length of Visible Light
Length of Day
Tomorrow will be .
, % of the Moon is Illuminated

Today's Extremes

State Highs State Lows

Community

WunderPhotos

Upload Photos

1,816,998 photos uploaded!

WunderBlogs® & News

Nearby

Air Quality

  Air Quality AQ Index Pollutant
Not available.

Snow Depth

Station Depth Elevation

Earthquake Activity

City Distance Mag. Time & Date
Minimum magnitude displayed is 2.5.

Coastal Water Temperatures

Place Temperature

Stations

Nearby Weather Stations

Station Location Temp. Windchill Dew Point Humidity Wind Precip. Elev Updated Type